Time;durP1;ratioP1;P1;durP2;ratioP2;P2;SDS_P1;SDS_P2;PMS_P1;PMS_P2;Temp;Humidity;BMP_temperature;BMP_pressure;BME280_temperature;BME280_humidity;BME280_pressure;Samples;Min_cycle;Max_cycle;Signal;HPM_P1;HPM_P2
2022/10/17 00:02:13;;;;;;;9.80;5.72;;;;;;;;;;6314711;22;20007;-94
2022/10/17 00:04:41;;;;;;;11.23;5.78;;;;;;;;;;6315681;22;20033;-94
2022/10/17 00:07:08;;;;;;;9.75;5.60;;;;;;;;;;6316116;22;20022;-94
2022/10/17 00:09:34;;;;;;;10.88;5.40;;;;;;;;;;6315407;22;20006;-94
2022/10/17 00:12:01;;;;;;;10.13;5.82;;;;;;;;;;6318127;22;20009;-93
2022/10/17 00:14:27;;;;;;;9.55;5.63;;;;;;;;;;6315264;22;20010;-94
2022/10/17 00:16:53;;;;;;;12.13;4.80;;;;;;;;;;6316652;22;20501;-94
2022/10/17 00:19:19;;;;;;;10.45;5.85;;;;;;;;;;6315848;22;19999;-93
2022/10/17 00:21:48;;;;;;;12.13;6.57;;;;;;;;;;6314767;22;20090;-94
2022/10/17 00:24:15;;;;;;;11.98;6.38;;;;;;;;;;6316010;22;20003;-94
2022/10/17 00:26:41;;;;;;;8.27;5.38;;;;;;;;;;6316294;22;20037;-94
2022/10/17 00:29:07;;;;;;;10.25;5.28;;;;;;;;;;6314529;22;20042;-94
2022/10/17 00:31:34;;;;;;;13.07;6.18;;;;;;;;;;6315206;22;20026;-93
2022/10/17 00:34:00;;;;;;;9.90;5.85;;;;;;;;;;6316244;22;19999;-91
2022/10/17 00:36:27;;;;;;;12.68;5.63;;;;;;;;;;6323574;22;20033;-92
2022/10/17 00:38:54;;;;;;;9.88;5.90;;;;;;;;;;6317411;22;20014;-93
2022/10/17 00:41:22;;;;;;;11.73;6.20;;;;;;;;;;6315010;22;20061;-94
2022/10/17 00:43:59;;;;;;;11.40;5.75;;;;;;;;;;6318672;22;20037;-94
2022/10/17 00:46:27;;;;;;;11.18;5.72;;;;;;;;;;6315782;22;20010;-94
2022/10/17 00:48:54;;;;;;;11.50;5.47;;;;;;;;;;6316202;22;20003;-94
2022/10/17 00:51:39;;;;;;;11.10;5.88;;;;;;;;;;6317879;22;20064;-94
2022/10/17 00:54:06;;;;;;;8.88;5.15;;;;;;;;;;6316671;22;20416;-93
2022/10/17 00:56:32;;;;;;;11.25;4.90;;;;;;;;;;6316626;22;20010;-93
2022/10/17 00:58:58;;;;;;;9.65;5.15;;;;;;;;;;6315721;22;20336;-94
2022/10/17 01:04:09;;;;;;;10.25;5.13;;;;;;;;;;6345178;22;20014;-92
2022/10/17 01:06:35;;;;;;;8.80;4.95;;;;;;;;;;6327803;22;20021;-91
2022/10/17 01:09:02;;;;;;;11.13;5.68;;;;;;;;;;6324423;22;20082;-93
2022/10/17 01:11:43;;;;;;;7.35;4.32;;;;;;;;;;6315258;22;20003;-94
2022/10/17 01:14:29;;;;;;;9.18;4.75;;;;;;;;;;6315722;22;20002;-94
2022/10/17 01:17:11;;;;;;;7.70;4.82;;;;;;;;;;6291182;22;19999;-95
2022/10/17 01:19:43;;;;;;;12.57;5.88;;;;;;;;;;6342005;22;20013;-93
2022/10/17 01:22:14;;;;;;;10.23;5.43;;;;;;;;;;6314736;22;20003;-93
2022/10/17 01:24:50;;;;;;;9.93;5.10;;;;;;;;;;6316048;22;20010;-93
2022/10/17 01:27:19;;;;;;;10.07;5.18;;;;;;;;;;6315450;22;20003;-92
2022/10/17 01:30:04;;;;;;;9.70;4.68;;;;;;;;;;6311787;22;20032;-93
2022/10/17 01:32:39;;;;;;;11.88;5.47;;;;;;;;;;6318479;22;20006;-93
2022/10/17 01:35:10;;;;;;;10.65;5.55;;;;;;;;;;6314211;22;20013;-93
2022/10/17 01:37:45;;;;;;;10.02;4.95;;;;;;;;;;6314953;22;20075;-92
2022/10/17 01:40:14;;;;;;;7.10;4.10;;;;;;;;;;6317122;22;20070;-91
2022/10/17 01:42:59;;;;;;;6.72;4.10;;;;;;;;;;6315125;22;20148;-93
2022/10/17 01:45:28;;;;;;;10.98;5.32;;;;;;;;;;6314739;22;20010;-93
2022/10/17 01:47:56;;;;;;;10.15;4.63;;;;;;;;;;6315476;22;20002;-93
2022/10/17 01:50:30;;;;;;;8.20;5.25;;;;;;;;;;6314605;22;20105;-92
2022/10/17 01:53:06;;;;;;;10.93;5.57;;;;;;;;;;6315594;22;19994;-93
2022/10/17 01:55:37;;;;;;;15.38;6.18;;;;;;;;;;6305835;22;20039;-94
2022/10/17 01:58:09;;;;;;;11.25;4.93;;;;;;;;;;6310430;22;20415;-93
2022/10/17 02:00:36;;;;;;;8.52;5.10;;;;;;;;;;6309904;22;20434;-94
2022/10/17 02:03:06;;;;;;;12.60;5.68;;;;;;;;;;6309578;22;19999;-94
2022/10/17 02:05:37;;;;;;;10.38;5.13;;;;;;;;;;6310107;22;20007;-95
2022/10/17 02:08:03;;;;;;;12.60;6.63;;;;;;;;;;6310318;22;19987;-94
2022/10/17 02:10:35;;;;;;;11.77;5.63;;;;;;;;;;6310425;22;20141;-94
2022/10/17 02:13:06;;;;;;;10.13;5.90;;;;;;;;;;6309437;22;20018;-93
2022/10/17 02:15:51;;;;;;;14.10;6.57;;;;;;;;;;6309846;22;20015;-93
2022/10/17 02:18:26;;;;;;;9.10;5.13;;;;;;;;;;6310767;22;20003;-93
2022/10/17 02:21:30;;;;;;;10.43;5.30;;;;;;;;;;6310804;22;20026;-94
2022/10/17 02:24:07;;;;;;;13.40;5.25;;;;;;;;;;6194070;23;20001;-94
2022/10/17 02:26:37;;;;;;;14.80;4.68;;;;;;;;;;6295157;22;20480;-94
2022/10/17 02:29:15;;;;;;;9.23;5.40;;;;;;;;;;6310291;22;20000;-94
2022/10/17 02:31:44;;;;;;;12.93;5.65;;;;;;;;;;6313105;22;20018;-94
2022/10/17 02:34:19;;;;;;;9.90;5.40;;;;;;;;;;6310824;22;20004;-94
2022/10/17 02:36:49;;;;;;;11.00;5.72;;;;;;;;;;6309983;22;20003;-95
2022/10/17 02:39:15;;;;;;;10.05;4.82;;;;;;;;;;6310147;22;20000;-96
2022/10/17 02:41:45;;;;;;;12.50;5.50;;;;;;;;;;6309863;22;20003;-93
2022/10/17 02:44:18;;;;;;;12.02;5.65;;;;;;;;;;6319367;22;19999;-91
2022/10/17 02:50:05;;;;;;;10.93;4.82;;;;;;;;;;6309905;22;20080;-94
2022/10/17 02:52:39;;;;;;;10.60;4.97;;;;;;;;;;6310307;22;19987;-94
2022/10/17 02:55:05;;;;;;;13.25;5.72;;;;;;;;;;6311021;22;20386;-94
2022/10/17 02:57:38;;;;;;;10.85;5.70;;;;;;;;;;6285719;22;20000;-94
2022/10/17 03:00:15;;;;;;;9.20;5.05;;;;;;;;;;6285345;22;20007;-93
2022/10/17 03:02:48;;;;;;;10.13;5.00;;;;;;;;;;6286672;22;20090;-94
2022/10/17 03:05:22;;;;;;;13.02;5.10;;;;;;;;;;6286893;22;20007;-91
2022/10/17 03:07:48;;;;;;;9.98;5.53;;;;;;;;;;6286009;22;20003;-93
2022/10/17 03:10:17;;;;;;;10.75;5.43;;;;;;;;;;6287218;22;20386;-93
2022/10/17 03:12:56;;;;;;;7.50;4.75;;;;;;;;;;6286519;22;20004;-93
2022/10/17 03:15:36;;;;;;;;;;;;;;;;;;;;;
2022/10/17 03:18:08;;;;;;;10.50;4.85;;;;;;;;;;6316293;22;20019;-93
2022/10/17 03:20:37;;;;;;;11.70;5.65;;;;;;;;;;6286496;22;20007;-93
2022/10/17 03:23:03;;;;;;;8.25;4.90;;;;;;;;;;6286574;22;19999;-92
2022/10/17 03:25:29;;;;;;;9.40;5.00;;;;;;;;;;6286121;22;20003;-94
2022/10/17 03:28:00;;;;;;;11.38;6.32;;;;;;;;;;6286375;22;19999;-93
2022/10/17 03:30:29;;;;;;;12.98;4.93;;;;;;;;;;6284904;22;20003;-93
2022/10/17 03:33:02;;;;;;;7.68;4.60;;;;;;;;;;6287930;22;20320;-94
2022/10/17 03:35:28;;;;;;;9.20;5.13;;;;;;;;;;6285337;22;20433;-95
2022/10/17 03:37:58;;;;;;;6.10;3.80;;;;;;;;;;6286715;22;20002;-94
2022/10/17 03:40:24;;;;;;;6.70;4.13;;;;;;;;;;6285033;22;20416;-93
2022/10/17 03:42:54;;;;;;;9.40;4.30;;;;;;;;;;6288786;22;19983;-94
2022/10/17 03:45:20;;;;;;;11.55;4.97;;;;;;;;;;6285116;22;20081;-94
2022/10/17 03:47:46;;;;;;;9.40;5.05;;;;;;;;;;6287079;22;20023;-94
2022/10/17 03:50:12;;;;;;;10.45;5.25;;;;;;;;;;6288525;22;20313;-94
2022/10/17 03:52:38;;;;;;;11.75;5.18;;;;;;;;;;6284809;22;20432;-93
2022/10/17 03:55:04;;;;;;;12.02;5.30;;;;;;;;;;6285433;22;20007;-93
2022/10/17 03:57:31;;;;;;;11.23;4.68;;;;;;;;;;6314279;22;20447;-93
2022/10/17 03:59:57;;;;;;;12.57;5.65;;;;;;;;;;6286338;22;19999;-95
2022/10/17 04:02:23;;;;;;;13.32;5.05;;;;;;;;;;6282788;22;20004;-94
2022/10/17 04:04:50;;;;;;;11.57;5.85;;;;;;;;;;6285171;22;20014;-93
2022/10/17 04:07:16;;;;;;;9.38;4.72;;;;;;;;;;6285110;22;20003;-95
2022/10/17 04:09:45;;;;;;;13.15;5.05;;;;;;;;;;6284240;22;19999;-95
2022/10/17 04:12:11;;;;;;;9.10;4.97;;;;;;;;;;6285076;22;19999;-95
2022/10/17 04:14:37;;;;;;;13.23;5.32;;;;;;;;;;6283178;22;20018;-96
2022/10/17 04:17:06;;;;;;;10.65;5.30;;;;;;;;;;6286718;22;20003;-96
2022/10/17 04:19:33;;;;;;;12.45;5.15;;;;;;;;;;6286071;22;20013;-95
2022/10/17 04:21:59;;;;;;;10.77;5.40;;;;;;;;;;6286326;22;20003;-96
2022/10/17 04:24:25;;;;;;;10.45;4.55;;;;;;;;;;6284157;22;20003;-95
2022/10/17 04:26:54;;;;;;;9.80;5.03;;;;;;;;;;6287479;22;20009;-94
2022/10/17 04:29:21;;;;;;;14.75;5.32;;;;;;;;;;6287440;22;20033;-93
2022/10/17 04:31:47;;;;;;;18.35;6.38;;;;;;;;;;6300411;22;19988;-92
2022/10/17 04:34:16;;;;;;;12.35;6.68;;;;;;;;;;6296077;22;20049;-93
2022/10/17 04:36:42;;;;;;;10.93;5.90;;;;;;;;;;6285619;22;20014;-96
2022/10/17 04:39:08;;;;;;;9.48;5.43;;;;;;;;;;6287088;22;20003;-93
2022/10/17 04:41:35;;;;;;;12.10;5.55;;;;;;;;;;6313938;22;20012;-93
2022/10/17 04:44:01;;;;;;;12.77;6.25;;;;;;;;;;6285897;22;19999;-94
2022/10/17 04:46:27;;;;;;;10.55;5.50;;;;;;;;;;6284372;22;20007;-95
2022/10/17 04:48:54;;;;;;;12.65;6.50;;;;;;;;;;6284412;22;20007;-93
2022/10/17 04:51:20;;;;;;;16.73;6.22;;;;;;;;;;6290171;22;19999;-92
2022/10/17 04:53:46;;;;;;;9.95;4.72;;;;;;;;;;6288760;22;20003;-94
2022/10/17 04:56:13;;;;;;;10.82;5.22;;;;;;;;;;6285982;22;20015;-93
2022/10/17 04:58:40;;;;;;;12.32;5.28;;;;;;;;;;6284402;22;20007;-94
2022/10/17 05:01:07;;;;;;;23.95;6.55;;;;;;;;;;6285536;22;20082;-94
2022/10/17 05:03:34;;;;;;;17.73;6.22;;;;;;;;;;6284181;22;19999;-93
2022/10/17 05:06:10;;;;;;;17.52;5.90;;;;;;;;;;6284728;22;20003;-91
2022/10/17 05:08:46;;;;;;;10.60;5.35;;;;;;;;;;6284499;22;20030;-93
2022/10/17 05:11:16;;;;;;;14.35;5.25;;;;;;;;;;6283409;22;20003;-95
2022/10/17 05:13:49;;;;;;;9.05;5.03;;;;;;;;;;6283501;22;20436;-95
2022/10/17 05:16:15;;;;;;;10.10;5.10;;;;;;;;;;6283049;22;20007;-93
2022/10/17 05:18:41;;;;;;;10.75;4.60;;;;;;;;;;6282818;22;20030;-92
2022/10/17 05:21:07;;;;;;;14.50;6.13;;;;;;;;;;6283429;22;20003;-93
2022/10/17 05:23:33;;;;;;;10.52;4.72;;;;;;;;;;6281902;22;20424;-90
2022/10/17 05:25:59;;;;;;;9.13;5.13;;;;;;;;;;6282397;22;20003;-92
2022/10/17 05:28:27;;;;;;;12.65;6.10;;;;;;;;;;6282282;22;20064;-92
2022/10/17 05:30:53;;;;;;;15.07;6.50;;;;;;;;;;6283014;22;20003;-94
2022/10/17 05:33:19;;;;;;;31.00;6.65;;;;;;;;;;6258939;22;20007;-94
2022/10/17 05:36:04;;;;;;;11.98;6.25;;;;;;;;;;6282496;22;20053;-93
2022/10/17 05:41:53;;;;;;;;;;;;;;;;;;;;;
2022/10/17 05:44:19;;;;;;;10.77;5.70;;;;;;;;;;6309834;22;20086;-94
2022/10/17 05:46:47;;;;;;;14.68;6.68;;;;;;;;;;6282251;22;20023;-94
2022/10/17 05:49:24;;;;;;;17.92;5.97;;;;;;;;;;6308703;22;20003;-92
2022/10/17 05:52:05;;;;;;;12.10;5.30;;;;;;;;;;6309734;22;20056;-94
2022/10/17 05:54:31;;;;;;;11.30;6.22;;;;;;;;;;6307991;22;20007;-93
2022/10/17 06:00:18;;;;;;;10.45;6.25;;;;;;;;;;6309885;22;20056;-93
2022/10/17 06:02:44;;;;;;;12.60;6.40;;;;;;;;;;6308462;22;20003;-93
2022/10/17 06:05:14;;;;;;;11.77;5.93;;;;;;;;;;6308345;22;20090;-93
2022/10/17 06:07:40;;;;;;;18.75;6.18;;;;;;;;;;6308252;22;19999;-94
2022/10/17 06:10:07;;;;;;;14.18;7.18;;;;;;;;;;6308414;22;20033;-94
2022/10/17 06:12:36;;;;;;;18.42;6.90;;;;;;;;;;6308458;22;20003;-91
2022/10/17 06:15:21;;;;;;;23.17;7.68;;;;;;;;;;6307013;22;20314;-92
2022/10/17 06:17:53;;;;;;;24.67;8.52;;;;;;;;;;6281502;22;20559;-91
2022/10/17 06:20:29;;;;;;;29.50;8.15;;;;;;;;;;6280917;22;20004;-91
2022/10/17 06:22:55;;;;;;;29.88;8.80;;;;;;;;;;6280949;22;20014;-91
2022/10/17 06:25:22;;;;;;;31.42;8.15;;;;;;;;;;6281638;22;20004;-90
2022/10/17 06:28:03;;;;;;;;;;;;;;;;;;;;;
2022/10/17 06:30:29;;;;;;;23.05;7.82;;;;;;;;;;6308766;22;20071;-91
2022/10/17 06:32:58;;;;;;;15.57;7.10;;;;;;;;;;6282766;22;20030;-93
2022/10/17 06:35:31;;;;;;;16.05;6.82;;;;;;;;;;6282504;22;20064;-92
2022/10/17 06:37:57;;;;;;;13.07;6.03;;;;;;;;;;6283319;22;20015;-91
2022/10/17 06:40:26;;;;;;;15.55;6.63;;;;;;;;;;6283909;22;20004;-92
2022/10/17 06:43:09;;;;;;;;;;;;;;;;;;;;;
2022/10/17 06:45:38;;;;;;;12.70;5.90;;;;;;;;;;6205771;22;20093;-91
2022/10/17 06:48:11;;;;;;;13.77;6.43;;;;;;;;;;6285359;22;20047;-94
2022/10/17 06:51:08;;;;;;;15.95;7.40;;;;;;;;;;6284303;22;20003;-95
2022/10/17 06:53:44;;;;;;;14.98;7.55;;;;;;;;;;6274350;22;20011;-92
2022/10/17 06:56:13;;;;;;;12.20;6.68;;;;;;;;;;6286457;22;20012;-96
2022/10/17 06:58:43;;;;;;;11.32;6.72;;;;;;;;;;6285806;22;20003;-91
2022/10/17 07:01:10;;;;;;;10.70;6.15;;;;;;;;;;6284995;22;20011;-92
2022/10/17 07:03:37;;;;;;;13.40;6.82;;;;;;;;;;6284789;22;20000;-93
2022/10/17 07:09:09;;;;;;;13.68;5.65;;;;;;;;;;6219280;23;20084;-94
2022/10/17 07:11:35;;;;;;;8.20;5.43;;;;;;;;;;6191619;23;20015;-93
2022/10/17 07:20:30;;;;;;;6.10;4.07;;;;;;;;;;6183592;23;20140;-93
2022/10/17 07:22:57;;;;;;;6.75;4.03;;;;;;;;;;6192302;23;20004;-93
2022/10/17 07:28:42;;;;;;;7.57;3.53;;;;;;;;;;6146726;22;20649;-89
2022/10/17 07:31:13;;;;;;;9.10;4.15;;;;;;;;;;6284957;22;20010;-90
2022/10/17 07:33:53;;;;;;;;;;;;;;;;;;;;;
2022/10/17 07:36:45;;;;;;;6.93;4.25;;;;;;;;;;6216067;23;20020;-91
2022/10/17 07:39:14;;;;;;;6.82;4.20;;;;;;;;;;6195746;22;20055;-91
2022/10/17 07:41:40;;;;;;;6.97;4.47;;;;;;;;;;6283592;22;20380;-91
2022/10/17 07:44:10;;;;;;;6.80;4.57;;;;;;;;;;6283096;22;20072;-92
2022/10/17 07:46:42;;;;;;;9.35;5.03;;;;;;;;;;6283140;22;20019;-90
2022/10/17 07:49:14;;;;;;;10.25;5.10;;;;;;;;;;6309323;22;20010;-93
2022/10/17 07:51:40;;;;;;;;;;;;;;;;;;6308626;22;20559;-89
2022/10/17 07:54:06;;;;;;;12.23;5.07;;;;;;;;;;6309150;22;19902;-90
2022/10/17 07:56:33;;;;;;;8.38;5.05;;;;;;;;;;6308811;22;20122;-92
2022/10/17 07:58:59;;;;;;;8.50;5.22;;;;;;;;;;6309304;22;20003;-91
2022/10/17 08:01:28;;;;;;;6.25;4.20;;;;;;;;;;6307973;22;20061;-93
2022/10/17 08:03:54;;;;;;;11.80;4.40;;;;;;;;;;6314844;22;20336;-90
2022/10/17 08:06:20;;;;;;;9.65;5.10;;;;;;;;;;6312600;22;20003;-90
2022/10/17 08:08:46;;;;;;;10.68;5.13;;;;;;;;;;6308312;22;20045;-89
2022/10/17 08:11:13;;;;;;;12.18;4.00;;;;;;;;;;6308858;22;20000;-93
2022/10/17 15:27:25;;;;;;;6.43;3.38;;;;;;;;;;6274860;22;20352;-94
2022/10/17 15:35:24;;;;;;;6.70;3.22;;;;;;;;;;6319349;22;20027;-93
2022/10/17 15:41:33;;;;;;;7.25;3.70;;;;;;;;;;6323765;22;20010;-95
2022/10/17 15:53:40;;;;;;;9.68;3.67;;;;;;;;;;6357158;22;20014;-95
2022/10/17 15:56:50;;;;;;;7.57;4.00;;;;;;;;;;6317741;22;20023;-96
2022/10/17 15:59:25;;;;;;;10.95;3.63;;;;;;;;;;6165718;23;20358;-95
2022/10/17 16:02:12;;;;;;;8.63;4.00;;;;;;;;;;6308939;22;20014;-94
2022/10/17 16:04:42;;;;;;;10.65;4.53;;;;;;;;;;6330554;22;20063;-93
2022/10/17 16:07:08;;;;;;;7.53;4.25;;;;;;;;;;6319960;22;20007;-92
2022/10/17 16:09:43;;;;;;;10.63;4.47;;;;;;;;;;6321039;22;20003;-96
2022/10/17 16:12:45;;;;;;;9.80;3.97;;;;;;;;;;6318547;22;20011;-96
2022/10/17 16:15:23;;;;;;;10.57;5.18;;;;;;;;;;6319909;22;20011;-94
2022/10/17 16:17:53;;;;;;;9.10;5.22;;;;;;;;;;6321490;22;20018;-96
2022/10/17 16:20:20;;;;;;;8.90;4.90;;;;;;;;;;6321537;22;20009;-95
2022/10/17 16:22:59;;;;;;;10.57;5.20;;;;;;;;;;6316309;22;20003;-95
2022/10/17 16:25:28;;;;;;;8.10;4.47;;;;;;;;;;6317146;22;19998;-96
2022/10/17 16:28:27;;;;;;;;;;;;;;;;;;;;;
2022/10/17 16:30:54;;;;;;;14.32;4.45;;;;;;;;;;6333045;22;20026;-96
2022/10/17 16:36:17;;;;;;;13.70;5.00;;;;;;;;;;6254174;23;20521;-96
2022/10/17 16:42:20;;;;;;;14.02;3.92;;;;;;;;;;6100559;23;20018;-96
2022/10/17 16:45:04;;;;;;;13.60;4.50;;;;;;;;;;6099551;23;20107;-96
2022/10/17 16:47:32;;;;;;;;;;;;;;;;;;6219818;23;20383;-96
2022/10/17 16:50:11;;;;;;;8.82;4.07;;;;;;;;;;6248897;23;19915;-94
2022/10/17 16:52:38;;;;;;;13.05;4.35;;;;;;;;;;6223070;23;20046;-94
2022/10/17 16:55:21;;;;;;;7.18;3.88;;;;;;;;;;6317505;22;20042;-96
2022/10/17 17:01:49;;;;;;;;;;;;;;;;;;;;;
2022/10/17 17:04:39;;;;;;;8.57;4.63;;;;;;;;;;6337953;22;20369;-96
2022/10/17 17:07:29;;;;;;;14.82;6.15;;;;;;;;;;6346138;22;20431;-96
2022/10/17 17:12:45;;;;;;;15.23;7.55;;;;;;;;;;6347242;22;20050;-96
2022/10/17 17:18:23;;;;;;;20.35;7.32;;;;;;;;;;6349483;22;20010;-96
2022/10/17 17:21:05;;;;;;;13.00;8.20;;;;;;;;;;6319374;22;20003;-93
2022/10/17 17:23:37;;;;;;;18.13;7.47;;;;;;;;;;6317403;22;20492;-92
2022/10/17 17:26:39;;;;;;;18.73;8.40;;;;;;;;;;6316802;22;20052;-95
2022/10/17 17:29:10;;;;;;;31.58;10.32;;;;;;;;;;6339179;22;20022;-94
2022/10/17 17:31:38;;;;;;;19.67;10.15;;;;;;;;;;6316027;22;20014;-93
2022/10/17 17:34:09;;;;;;;15.90;8.32;;;;;;;;;;6318761;22;20005;-95
2022/10/17 17:36:36;;;;;;;15.82;9.20;;;;;;;;;;6319318;22;20313;-92
2022/10/17 17:39:16;;;;;;;15.98;8.98;;;;;;;;;;6315797;22;20023;-93
2022/10/17 17:41:54;;;;;;;20.05;9.68;;;;;;;;;;6314565;22;20059;-96
2022/10/17 17:44:20;;;;;;;19.88;10.68;;;;;;;;;;6290280;22;20090;-92
2022/10/17 17:46:49;;;;;;;15.82;9.27;;;;;;;;;;6307653;22;20508;-94
2022/10/17 17:49:15;;;;;;;20.80;9.35;;;;;;;;;;6308846;22;20011;-89
2022/10/17 17:52:11;;;;;;;14.63;8.32;;;;;;;;;;6309162;22;19999;-93
2022/10/17 17:54:38;;;;;;;13.80;7.25;;;;;;;;;;6309124;22;20003;-92
2022/10/17 17:57:09;;;;;;;14.43;7.82;;;;;;;;;;6308687;22;20474;-92
2022/10/17 17:59:35;;;;;;;12.38;8.10;;;;;;;;;;6309173;22;20420;-95
2022/10/17 18:02:03;;;;;;;18.42;7.65;;;;;;;;;;6308513;22;20014;-93
2022/10/17 18:04:31;;;;;;;19.48;9.10;;;;;;;;;;6308708;22;20010;-94
2022/10/17 18:06:58;;;;;;;17.27;8.82;;;;;;;;;;6308301;22;20492;-96
2022/10/17 18:09:55;;;;;;;13.95;7.63;;;;;;;;;;6258366;22;20011;-96
2022/10/17 18:12:22;;;;;;;19.88;7.55;;;;;;;;;;6308945;22;20004;-94
2022/10/17 18:15:18;;;;;;;19.95;9.32;;;;;;;;;;6313724;22;20027;-94
2022/10/17 18:17:50;;;;;;;25.17;12.13;;;;;;;;;;6316057;22;20037;-92
2022/10/17 18:23:22;;;;;;;18.37;8.43;;;;;;;;;;6310130;22;20014;-92
2022/10/17 18:28:34;;;;;;;22.35;10.20;;;;;;;;;;6299393;22;20333;-89
2022/10/17 18:31:23;;;;;;;23.13;12.18;;;;;;;;;;6303365;22;20280;-94
2022/10/17 18:34:00;;;;;;;24.50;12.23;;;;;;;;;;6310266;22;20082;-94
2022/10/17 18:36:29;;;;;;;24.95;11.38;;;;;;;;;;6310802;22;20019;-90
2022/10/17 18:39:20;;;;;;;21.27;12.02;;;;;;;;;;6311757;22;20107;-95
2022/10/17 18:42:10;;;;;;;22.20;11.82;;;;;;;;;;6317036;22;20007;-94
2022/10/17 18:44:39;;;;;;;22.15;10.43;;;;;;;;;;6318631;22;20078;-96
2022/10/17 18:47:40;;;;;;;23.95;12.75;;;;;;;;;;6314376;22;20432;-93
2022/10/17 18:50:08;;;;;;;24.45;12.48;;;;;;;;;;6284158;22;20034;-91
2022/10/17 18:52:39;;;;;;;26.70;12.88;;;;;;;;;;6310921;22;20004;-93
2022/10/17 18:55:09;;;;;;;22.75;12.00;;;;;;;;;;6309606;22;20010;-90
2022/10/17 18:57:37;;;;;;;21.25;12.00;;;;;;;;;;6310442;22;20049;-94
2022/10/17 19:00:04;;;;;;;28.10;12.82;;;;;;;;;;6311212;22;20027;-89
2022/10/17 19:02:30;;;;;;;25.73;14.00;;;;;;;;;;6310667;22;20182;-91
2022/10/17 19:05:02;;;;;;;31.80;14.80;;;;;;;;;;6314504;22;20003;-95
2022/10/17 19:07:28;;;;;;;27.33;14.23;;;;;;;;;;6312714;22;20063;-93
2022/10/17 19:10:14;;;;;;;29.25;14.80;;;;;;;;;;6314016;22;20015;-90
2022/10/17 19:15:32;;;;;;;32.40;15.35;;;;;;;;;;6313317;22;20019;-96
2022/10/17 19:17:58;;;;;;;34.80;14.77;;;;;;;;;;6295504;22;20027;-94
2022/10/17 19:20:27;;;;;;;32.17;16.80;;;;;;;;;;6287852;22;20003;-96
2022/10/17 19:23:11;;;;;;;32.22;14.95;;;;;;;;;;6289829;22;20007;-96
2022/10/17 19:25:38;;;;;;;22.95;13.52;;;;;;;;;;6286452;22;20471;-92
2022/10/17 19:28:04;;;;;;;22.75;13.05;;;;;;;;;;6285537;22;20086;-91
2022/10/17 19:30:39;;;;;;;24.02;13.70;;;;;;;;;;6285277;22;20439;-94
2022/10/17 19:33:08;;;;;;;31.10;13.23;;;;;;;;;;6288476;22;20048;-94
2022/10/17 19:44:01;;;;;;;22.08;11.65;;;;;;;;;;6342964;22;20018;-93
2022/10/17 19:46:32;;;;;;;23.40;12.27;;;;;;;;;;6314584;22;20003;-91
2022/10/17 19:49:02;;;;;;;22.02;12.13;;;;;;;;;;6317699;22;20077;-91
2022/10/17 19:51:37;;;;;;;22.73;12.27;;;;;;;;;;6315256;22;20005;-96
2022/10/17 19:54:25;;;;;;;28.30;12.35;;;;;;;;;;6314487;22;20011;-94
2022/10/17 19:57:07;;;;;;;20.23;11.05;;;;;;;;;;6315728;22;20022;-95
2022/10/17 19:59:44;;;;;;;21.30;12.85;;;;;;;;;;6319503;22;20003;-95
2022/10/17 20:02:12;;;;;;;20.75;10.65;;;;;;;;;;6322145;22;20082;-94
2022/10/17 20:07:54;;;;;;;20.88;10.43;;;;;;;;;;6344220;22;20079;-95
2022/10/17 20:12:54;;;;;;;21.35;10.68;;;;;;;;;;6332692;22;20034;-93
2022/10/17 20:24:02;;;;;;;19.98;9.10;;;;;;;;;;6305659;22;20022;-94
2022/10/17 20:26:29;;;;;;;17.75;9.02;;;;;;;;;;6279249;22;20019;-92
2022/10/17 20:29:24;;;;;;;15.50;9.48;;;;;;;;;;6310165;22;20084;-96
2022/10/17 20:31:59;;;;;;;17.23;8.30;;;;;;;;;;6309571;22;20004;-96
2022/10/17 20:34:26;;;;;;;15.07;7.82;;;;;;;;;;6310303;22;20003;-92
2022/10/17 20:37:04;;;;;;;19.08;7.57;;;;;;;;;;6310417;22;20077;-95
2022/10/17 20:43:06;;;;;;;15.10;7.23;;;;;;;;;;6311172;22;20052;-96
2022/10/17 20:45:44;;;;;;;13.18;6.70;;;;;;;;;;6309689;22;20245;-96
2022/10/17 20:51:32;;;;;;;11.07;5.23;;;;;;;;;;6313877;22;20022;-91
2022/10/17 20:53:59;;;;;;;9.18;5.05;;;;;;;;;;6321272;22;20237;-91
2022/10/17 20:56:34;;;;;;;9.52;4.47;;;;;;;;;;6318505;22;20031;-96
2022/10/17 20:59:24;;;;;;;11.02;4.97;;;;;;;;;;6311572;22;20018;-96
2022/10/17 21:01:54;;;;;;;9.15;4.75;;;;;;;;;;6316165;22;20007;-96
2022/10/17 21:04:29;;;;;;;9.73;4.85;;;;;;;;;;6310798;22;20420;-96
2022/10/17 21:09:47;;;;;;;10.10;5.90;;;;;;;;;;6311331;22;20075;-96
2022/10/17 21:12:13;;;;;;;11.57;5.40;;;;;;;;;;6310845;22;20007;-92
2022/10/17 21:18:02;;;;;;;9.00;4.65;;;;;;;;;;6190227;23;20136;-96
2022/10/17 21:25:58;;;;;;;11.25;4.30;;;;;;;;;;6317190;22;19901;-92
2022/10/17 21:28:28;;;;;;;10.32;5.38;;;;;;;;;;6293232;22;20082;-96
2022/10/17 21:31:18;;;;;;;14.80;5.43;;;;;;;;;;6287574;22;20027;-95
2022/10/17 21:33:55;;;;;;;13.63;5.68;;;;;;;;;;6283638;22;20027;-96
2022/10/17 21:36:24;;;;;;;13.00;5.28;;;;;;;;;;6284572;22;20015;-96
2022/10/17 21:44:57;;;;;;;9.67;4.90;;;;;;;;;;6312690;22;20022;-92
2022/10/17 21:47:35;;;;;;;14.32;5.57;;;;;;;;;;6283856;22;20237;-96
2022/10/17 21:53:05;;;;;;;18.13;5.55;;;;;;;;;;6311019;22;20506;-96
2022/10/17 21:55:44;;;;;;;15.15;6.75;;;;;;;;;;6286657;22;20011;-92
2022/10/17 21:58:10;;;;;;;12.18;5.88;;;;;;;;;;6283599;22;20010;-92
2022/10/17 22:00:39;;;;;;;12.90;7.00;;;;;;;;;;6288202;22;20008;-94
2022/10/17 22:03:13;;;;;;;21.20;7.72;;;;;;;;;;6284603;22;20393;-96
2022/10/17 22:05:43;;;;;;;15.77;6.65;;;;;;;;;;6283282;22;20000;-92
2022/10/17 22:08:11;;;;;;;10.52;5.70;;;;;;;;;;6312718;22;20018;-92
2022/10/17 22:10:38;;;;;;;11.43;5.95;;;;;;;;;;6285573;22;20420;-93
2022/10/17 22:13:07;;;;;;;17.33;8.32;;;;;;;;;;6284935;22;20003;-96
2022/10/17 22:15:44;;;;;;;18.63;9.55;;;;;;;;;;6284046;22;20011;-96
2022/10/17 22:18:10;;;;;;;26.60;10.13;;;;;;;;;;6284078;22;20009;-93
2022/10/17 22:20:56;;;;;;;25.45;11.02;;;;;;;;;;6286677;22;20039;-95
2022/10/17 22:23:28;;;;;;;25.15;9.82;;;;;;;;;;6283210;22;19999;-96
2022/10/17 22:25:58;;;;;;;21.02;8.93;;;;;;;;;;6283920;22;20030;-96
2022/10/17 22:28:25;;;;;;;19.52;7.82;;;;;;;;;;6283033;22;20003;-92
2022/10/17 22:31:07;;;;;;;18.40;8.50;;;;;;;;;;6284024;22;20491;-93
2022/10/17 22:33:37;;;;;;;19.50;9.50;;;;;;;;;;6286530;22;20063;-92
2022/10/17 22:36:13;;;;;;;19.40;9.00;;;;;;;;;;6295518;22;20030;-91
2022/10/17 22:38:39;;;;;;;17.90;8.57;;;;;;;;;;6318697;22;20126;-92
2022/10/17 22:41:05;;;;;;;19.40;8.02;;;;;;;;;;6317472;22;20011;-91
2022/10/17 22:43:37;;;;;;;23.35;9.90;;;;;;;;;;6311582;22;20008;-92
2022/10/17 22:46:25;;;;;;;26.52;8.43;;;;;;;;;;6308963;22;20003;-96
2022/10/17 22:49:13;;;;;;;14.32;6.85;;;;;;;;;;6309275;22;20034;-96
2022/10/17 22:52:04;;;;;;;18.13;6.80;;;;;;;;;;6310788;22;20006;-96
2022/10/17 22:57:57;;;;;;;11.07;5.68;;;;;;;;;;6314086;22;20018;-95
2022/10/17 23:03:49;;;;;;;14.80;6.82;;;;;;;;;;6268050;22;20079;-91
2022/10/17 23:09:41;;;;;;;15.93;6.20;;;;;;;;;;6312907;22;20014;-92
2022/10/17 23:12:17;;;;;;;14.63;6.88;;;;;;;;;;6309241;22;20007;-96
2022/10/17 23:17:30;;;;;;;16.38;7.63;;;;;;;;;;6310633;22;20092;-96
2022/10/17 23:20:15;;;;;;;19.48;9.02;;;;;;;;;;6292485;22;20007;-96
2022/10/17 23:23:09;;;;;;;19.15;8.40;;;;;;;;;;6290834;22;20003;-96
2022/10/17 23:26:06;;;;;;;19.45;8.07;;;;;;;;;;6290629;22;20003;-96
2022/10/17 23:28:34;;;;;;;16.02;7.18;;;;;;;;;;6286854;22;20010;-92
2022/10/17 23:33:55;;;;;;;14.93;6.43;;;;;;;;;;6313494;22;20357;-92
2022/10/17 23:42:24;;;;;;;17.93;6.97;;;;;;;;;;6313384;22;20041;-96
2022/10/17 23:45:03;;;;;;;18.27;6.90;;;;;;;;;;6285065;22;20250;-96
2022/10/17 23:50:39;;;;;;;14.47;5.73;;;;;;;;;;6311773;22;20005;-96
2022/10/17 23:56:18;;;;;;;16.98;5.28;;;;;;;;;;6284937;22;21116;-96
2022/10/17 23:59:18;;;;;;;11.20;5.78;;;;;;;;;;6255009;22;20007;-96
